sensor_id;sensor_type;location;lat;lon;timestamp;P1;durP1;ratioP1;P2;durP2;ratioP2
71969;SDS011;59838;52.152;5.436;2023-08-31T00:00:49;2.78;;;0.70;;
71969;SDS011;59838;52.152;5.436;2023-08-31T00:03:19;5.15;;;0.85;;
71969;SDS011;59838;52.152;5.436;2023-08-31T00:05:46;2.60;;;0.70;;
71969;SDS011;59838;52.152;5.436;2023-08-31T00:08:13;1.67;;;0.82;;
71969;SDS011;59838;52.152;5.436;2023-08-31T00:10:39;1.50;;;0.68;;
71969;SDS011;59838;52.152;5.436;2023-08-31T00:13:06;4.20;;;0.70;;
71969;SDS011;59838;52.152;5.436;2023-08-31T00:15:34;2.08;;;0.70;;
71969;SDS011;59838;52.152;5.436;2023-08-31T00:18:02;3.50;;;0.87;;
71969;SDS011;59838;52.152;5.436;2023-08-31T00:20:32;1.45;;;0.63;;
71969;SDS011;59838;52.152;5.436;2023-08-31T00:23:00;3.15;;;0.90;;
71969;SDS011;59838;52.152;5.436;2023-08-31T00:25:27;2.08;;;0.70;;
71969;SDS011;59838;52.152;5.436;2023-08-31T00:27:55;1.63;;;0.90;;
71969;SDS011;59838;52.152;5.436;2023-08-31T00:30:23;1.80;;;0.67;;
71969;SDS011;59838;52.152;5.436;2023-08-31T00:32:54;3.25;;;0.98;;
71969;SDS011;59838;52.152;5.436;2023-08-31T00:35:21;2.75;;;0.85;;
71969;SDS011;59838;52.152;5.436;2023-08-31T00:37:49;3.75;;;1.25;;
71969;SDS011;59838;52.152;5.436;2023-08-31T00:40:15;2.80;;;1.13;;
71969;SDS011;59838;52.152;5.436;2023-08-31T00:42:42;3.97;;;0.93;;
71969;SDS011;59838;52.152;5.436;2023-08-31T00:45:08;3.97;;;1.38;;
71969;SDS011;59838;52.152;5.436;2023-08-31T00:47:36;3.45;;;1.17;;
71969;SDS011;59838;52.152;5.436;2023-08-31T00:50:03;2.08;;;0.98;;
71969;SDS011;59838;52.152;5.436;2023-08-31T00:52:30;1.98;;;1.00;;
71969;SDS011;59838;52.152;5.436;2023-08-31T00:54:56;2.60;;;1.10;;
71969;SDS011;59838;52.152;5.436;2023-08-31T00:57:23;3.65;;;1.00;;
71969;SDS011;59838;52.152;5.436;2023-08-31T00:59:52;3.45;;;1.35;;
71969;SDS011;59838;52.152;5.436;2023-08-31T01:05:13;2.55;;;1.20;;
71969;SDS011;59838;52.152;5.436;2023-08-31T01:13:15;3.90;;;1.17;;
71969;SDS011;59838;52.152;5.436;2023-08-31T01:15:50;3.08;;;1.33;;
71969;SDS011;59838;52.152;5.436;2023-08-31T01:18:21;2.85;;;1.30;;
71969;SDS011;59838;52.152;5.436;2023-08-31T01:20:55;4.20;;;1.30;;
71969;SDS011;59838;52.152;5.436;2023-08-31T01:23:43;5.22;;;1.77;;
71969;SDS011;59838;52.152;5.436;2023-08-31T01:26:14;4.55;;;1.20;;
71969;SDS011;59838;52.152;5.436;2023-08-31T01:28:40;3.17;;;1.45;;
71969;SDS011;59838;52.152;5.436;2023-08-31T01:31:07;2.70;;;1.40;;
71969;SDS011;59838;52.152;5.436;2023-08-31T01:33:33;6.43;;;1.23;;
71969;SDS011;59838;52.152;5.436;2023-08-31T01:36:01;12.20;;;1.90;;
71969;SDS011;59838;52.152;5.436;2023-08-31T01:38:31;3.08;;;1.27;;
71969;SDS011;59838;52.152;5.436;2023-08-31T01:41:03;3.15;;;1.67;;
71969;SDS011;59838;52.152;5.436;2023-08-31T01:43:33;5.45;;;1.30;;
71969;SDS011;59838;52.152;5.436;2023-08-31T01:46:00;3.03;;;1.50;;
71969;SDS011;59838;52.152;5.436;2023-08-31T01:48:27;2.22;;;1.50;;
71969;SDS011;59838;52.152;5.436;2023-08-31T01:50:54;5.47;;;2.10;;
71969;SDS011;59838;52.152;5.436;2023-08-31T01:53:21;3.15;;;1.80;;
71969;SDS011;59838;52.152;5.436;2023-08-31T01:55:48;4.35;;;1.90;;
71969;SDS011;59838;52.152;5.436;2023-08-31T01:58:14;2.00;;;1.80;;
71969;SDS011;59838;52.152;5.436;2023-08-31T02:00:41;3.97;;;1.92;;
71969;SDS011;59838;52.152;5.436;2023-08-31T02:03:07;8.52;;;2.95;;
71969;SDS011;59838;52.152;5.436;2023-08-31T02:05:34;5.53;;;2.40;;
71969;SDS011;59838;52.152;5.436;2023-08-31T02:08:01;4.75;;;2.60;;
71969;SDS011;59838;52.152;5.436;2023-08-31T02:10:27;2.93;;;2.20;;
71969;SDS011;59838;52.152;5.436;2023-08-31T02:12:55;2.47;;;1.98;;
71969;SDS011;59838;52.152;5.436;2023-08-31T02:15:22;4.43;;;1.95;;
71969;SDS011;59838;52.152;5.436;2023-08-31T02:17:49;3.75;;;2.17;;
71969;SDS011;59838;52.152;5.436;2023-08-31T02:20:15;3.95;;;1.77;;
71969;SDS011;59838;52.152;5.436;2023-08-31T02:22:42;3.77;;;2.20;;
71969;SDS011;59838;52.152;5.436;2023-08-31T02:25:08;4.28;;;1.80;;
71969;SDS011;59838;52.152;5.436;2023-08-31T02:27:35;3.72;;;1.90;;
71969;SDS011;59838;52.152;5.436;2023-08-31T02:30:02;4.25;;;2.88;;
71969;SDS011;59838;52.152;5.436;2023-08-31T02:32:31;3.42;;;1.83;;
71969;SDS011;59838;52.152;5.436;2023-08-31T02:34:57;4.33;;;2.07;;
71969;SDS011;59838;52.152;5.436;2023-08-31T02:37:24;3.97;;;2.35;;
71969;SDS011;59838;52.152;5.436;2023-08-31T02:39:50;5.13;;;2.58;;
71969;SDS011;59838;52.152;5.436;2023-08-31T02:42:17;5.25;;;2.47;;
71969;SDS011;59838;52.152;5.436;2023-08-31T02:44:43;3.35;;;2.65;;
71969;SDS011;59838;52.152;5.436;2023-08-31T02:47:10;6.90;;;2.70;;
71969;SDS011;59838;52.152;5.436;2023-08-31T02:49:36;2.88;;;2.47;;
71969;SDS011;59838;52.152;5.436;2023-08-31T02:52:03;3.83;;;2.42;;
71969;SDS011;59838;52.152;5.436;2023-08-31T02:54:30;6.10;;;3.00;;
71969;SDS011;59838;52.152;5.436;2023-08-31T02:56:56;6.72;;;2.47;;
71969;SDS011;59838;52.152;5.436;2023-08-31T02:59:23;7.57;;;2.83;;
71969;SDS011;59838;52.152;5.436;2023-08-31T03:01:49;4.32;;;2.97;;
71969;SDS011;59838;52.152;5.436;2023-08-31T03:04:16;5.35;;;3.58;;
71969;SDS011;59838;52.152;5.436;2023-08-31T03:06:44;4.18;;;2.88;;
71969;SDS011;59838;52.152;5.436;2023-08-31T03:09:11;4.50;;;2.53;;
71969;SDS011;59838;52.152;5.436;2023-08-31T03:11:37;5.07;;;2.40;;
71969;SDS011;59838;52.152;5.436;2023-08-31T03:14:04;4.82;;;2.60;;
71969;SDS011;59838;52.152;5.436;2023-08-31T03:16:30;4.57;;;2.63;;
71969;SDS011;59838;52.152;5.436;2023-08-31T03:18:57;5.20;;;1.98;;
71969;SDS011;59838;52.152;5.436;2023-08-31T03:21:23;3.60;;;2.55;;
71969;SDS011;59838;52.152;5.436;2023-08-31T03:23:50;4.83;;;1.33;;
71969;SDS011;59838;52.152;5.436;2023-08-31T03:26:16;4.65;;;1.67;;
71969;SDS011;59838;52.152;5.436;2023-08-31T03:28:43;4.20;;;1.38;;
71969;SDS011;59838;52.152;5.436;2023-08-31T03:31:09;4.03;;;1.35;;
71969;SDS011;59838;52.152;5.436;2023-08-31T03:33:36;6.10;;;1.90;;
71969;SDS011;59838;52.152;5.436;2023-08-31T03:36:03;4.97;;;1.87;;
71969;SDS011;59838;52.152;5.436;2023-08-31T03:38:31;3.88;;;1.98;;
71969;SDS011;59838;52.152;5.436;2023-08-31T03:40:58;2.47;;;1.88;;
71969;SDS011;59838;52.152;5.436;2023-08-31T03:43:24;3.05;;;1.58;;
71969;SDS011;59838;52.152;5.436;2023-08-31T03:45:55;5.30;;;2.03;;
71969;SDS011;59838;52.152;5.436;2023-08-31T03:48:23;2.97;;;1.43;;
71969;SDS011;59838;52.152;5.436;2023-08-31T03:50:54;2.33;;;1.48;;
71969;SDS011;59838;52.152;5.436;2023-08-31T03:53:21;3.95;;;1.00;;
71969;SDS011;59838;52.152;5.436;2023-08-31T03:55:47;6.43;;;1.60;;
71969;SDS011;59838;52.152;5.436;2023-08-31T03:58:14;2.05;;;0.95;;
71969;SDS011;59838;52.152;5.436;2023-08-31T04:00:40;4.63;;;1.00;;
71969;SDS011;59838;52.152;5.436;2023-08-31T04:03:08;3.08;;;0.63;;
71969;SDS011;59838;52.152;5.436;2023-08-31T04:05:36;3.25;;;0.77;;
71969;SDS011;59838;52.152;5.436;2023-08-31T04:08:02;3.10;;;0.90;;
71969;SDS011;59838;52.152;5.436;2023-08-31T04:10:30;2.38;;;0.73;;
71969;SDS011;59838;52.152;5.436;2023-08-31T04:12:58;3.53;;;0.87;;
71969;SDS011;59838;52.152;5.436;2023-08-31T04:15:25;3.88;;;1.00;;
71969;SDS011;59838;52.152;5.436;2023-08-31T04:17:51;3.17;;;0.95;;
71969;SDS011;59838;52.152;5.436;2023-08-31T04:20:19;5.95;;;1.15;;
71969;SDS011;59838;52.152;5.436;2023-08-31T04:22:45;2.40;;;1.00;;
71969;SDS011;59838;52.152;5.436;2023-08-31T04:25:12;5.13;;;1.10;;
71969;SDS011;59838;52.152;5.436;2023-08-31T04:27:38;2.67;;;1.20;;
71969;SDS011;59838;52.152;5.436;2023-08-31T04:30:08;2.50;;;1.42;;
71969;SDS011;59838;52.152;5.436;2023-08-31T04:32:34;3.17;;;1.48;;
71969;SDS011;59838;52.152;5.436;2023-08-31T04:35:02;5.53;;;1.50;;
71969;SDS011;59838;52.152;5.436;2023-08-31T04:37:34;5.83;;;2.20;;
71969;SDS011;59838;52.152;5.436;2023-08-31T04:40:01;2.28;;;1.40;;
71969;SDS011;59838;52.152;5.436;2023-08-31T04:42:27;5.95;;;2.22;;
71969;SDS011;59838;52.152;5.436;2023-08-31T04:44:54;4.55;;;1.98;;
71969;SDS011;59838;52.152;5.436;2023-08-31T04:47:20;7.13;;;2.15;;
71969;SDS011;59838;52.152;5.436;2023-08-31T04:49:47;6.47;;;2.17;;
71969;SDS011;59838;52.152;5.436;2023-08-31T04:52:14;8.10;;;2.05;;
71969;SDS011;59838;52.152;5.436;2023-08-31T04:54:40;4.75;;;1.92;;
71969;SDS011;59838;52.152;5.436;2023-08-31T04:57:07;5.15;;;2.17;;
71969;SDS011;59838;52.152;5.436;2023-08-31T04:59:33;5.53;;;1.88;;
71969;SDS011;59838;52.152;5.436;2023-08-31T05:02:00;5.50;;;1.83;;
71969;SDS011;59838;52.152;5.436;2023-08-31T05:04:26;4.90;;;1.90;;
71969;SDS011;59838;52.152;5.436;2023-08-31T05:06:54;4.10;;;1.35;;
71969;SDS011;59838;52.152;5.436;2023-08-31T05:09:21;4.18;;;1.30;;
71969;SDS011;59838;52.152;5.436;2023-08-31T05:11:49;3.20;;;1.55;;
71969;SDS011;59838;52.152;5.436;2023-08-31T05:14:15;6.60;;;1.17;;
71969;SDS011;59838;52.152;5.436;2023-08-31T05:16:42;4.13;;;1.42;;
71969;SDS011;59838;52.152;5.436;2023-08-31T05:19:09;2.78;;;0.70;;
71969;SDS011;59838;52.152;5.436;2023-08-31T05:21:35;3.40;;;0.90;;
71969;SDS011;59838;52.152;5.436;2023-08-31T05:24:02;3.53;;;0.70;;
71969;SDS011;59838;52.152;5.436;2023-08-31T05:26:29;3.23;;;0.70;;
71969;SDS011;59838;52.152;5.436;2023-08-31T05:28:55;3.85;;;0.70;;
71969;SDS011;59838;52.152;5.436;2023-08-31T05:31:22;2.75;;;0.77;;
71969;SDS011;59838;52.152;5.436;2023-08-31T05:33:48;4.97;;;0.82;;
71969;SDS011;59838;52.152;5.436;2023-08-31T05:36:15;4.80;;;1.02;;
71969;SDS011;59838;52.152;5.436;2023-08-31T05:38:41;2.83;;;0.80;;
71969;SDS011;59838;52.152;5.436;2023-08-31T05:41:08;5.53;;;1.13;;
71969;SDS011;59838;52.152;5.436;2023-08-31T05:43:36;2.55;;;0.85;;
71969;SDS011;59838;52.152;5.436;2023-08-31T05:46:06;2.80;;;1.00;;
71969;SDS011;59838;52.152;5.436;2023-08-31T05:48:34;3.03;;;1.23;;
71969;SDS011;59838;52.152;5.436;2023-08-31T05:51:01;2.73;;;1.00;;
71969;SDS011;59838;52.152;5.436;2023-08-31T05:53:27;4.85;;;1.00;;
71969;SDS011;59838;52.152;5.436;2023-08-31T05:55:55;4.72;;;1.20;;
71969;SDS011;59838;52.152;5.436;2023-08-31T05:58:30;4.03;;;1.30;;
71969;SDS011;59838;52.152;5.436;2023-08-31T06:01:00;3.17;;;1.23;;
71969;SDS011;59838;52.152;5.436;2023-08-31T06:03:28;3.73;;;0.90;;
71969;SDS011;59838;52.152;5.436;2023-08-31T06:05:55;6.95;;;1.15;;
71969;SDS011;59838;52.152;5.436;2023-08-31T06:08:23;3.20;;;1.20;;
71969;SDS011;59838;52.152;5.436;2023-08-31T06:10:49;4.63;;;1.13;;
71969;SDS011;59838;52.152;5.436;2023-08-31T06:13:16;3.05;;;1.52;;
71969;SDS011;59838;52.152;5.436;2023-08-31T06:15:43;2.57;;;1.37;;
71969;SDS011;59838;52.152;5.436;2023-08-31T06:18:10;3.10;;;1.50;;
71969;SDS011;59838;52.152;5.436;2023-08-31T06:20:37;3.80;;;1.27;;
71969;SDS011;59838;52.152;5.436;2023-08-31T06:23:03;3.42;;;1.00;;
71969;SDS011;59838;52.152;5.436;2023-08-31T06:25:30;2.30;;;1.10;;
71969;SDS011;59838;52.152;5.436;2023-08-31T06:27:56;4.07;;;1.00;;
71969;SDS011;59838;52.152;5.436;2023-08-31T06:30:23;4.18;;;1.08;;
71969;SDS011;59838;52.152;5.436;2023-08-31T06:32:50;3.70;;;1.35;;
71969;SDS011;59838;52.152;5.436;2023-08-31T06:35:17;2.38;;;1.15;;
71969;SDS011;59838;52.152;5.436;2023-08-31T06:37:45;4.53;;;1.88;;
71969;SDS011;59838;52.152;5.436;2023-08-31T06:40:12;4.23;;;1.73;;
71969;SDS011;59838;52.152;5.436;2023-08-31T06:42:38;3.83;;;1.92;;
71969;SDS011;59838;52.152;5.436;2023-08-31T06:45:06;4.82;;;2.47;;
71969;SDS011;59838;52.152;5.436;2023-08-31T06:47:33;4.85;;;2.30;;
71969;SDS011;59838;52.152;5.436;2023-08-31T06:50:00;5.18;;;2.00;;
71969;SDS011;59838;52.152;5.436;2023-08-31T06:52:26;4.33;;;1.97;;
71969;SDS011;59838;52.152;5.436;2023-08-31T06:54:57;4.47;;;2.33;;
71969;SDS011;59838;52.152;5.436;2023-08-31T06:57:24;3.85;;;1.70;;
71969;SDS011;59838;52.152;5.436;2023-08-31T06:59:51;2.38;;;1.23;;
71969;SDS011;59838;52.152;5.436;2023-08-31T07:02:19;4.00;;;1.40;;
71969;SDS011;59838;52.152;5.436;2023-08-31T07:04:46;5.80;;;0.97;;
71969;SDS011;59838;52.152;5.436;2023-08-31T07:07:14;2.63;;;0.93;;
71969;SDS011;59838;52.152;5.436;2023-08-31T07:09:44;4.18;;;0.82;;
71969;SDS011;59838;52.152;5.436;2023-08-31T07:12:12;2.20;;;0.77;;
71969;SDS011;59838;52.152;5.436;2023-08-31T07:14:38;7.15;;;0.90;;
71969;SDS011;59838;52.152;5.436;2023-08-31T07:17:05;3.00;;;1.00;;
71969;SDS011;59838;52.152;5.436;2023-08-31T07:19:34;1.40;;;0.77;;
71969;SDS011;59838;52.152;5.436;2023-08-31T07:22:02;3.35;;;0.90;;
71969;SDS011;59838;52.152;5.436;2023-08-31T07:24:30;1.48;;;0.85;;
71969;SDS011;59838;52.152;5.436;2023-08-31T07:26:56;4.00;;;1.40;;
71969;SDS011;59838;52.152;5.436;2023-08-31T07:29:23;3.63;;;1.30;;
71969;SDS011;59838;52.152;5.436;2023-08-31T07:31:49;2.78;;;0.90;;
71969;SDS011;59838;52.152;5.436;2023-08-31T07:34:16;4.38;;;1.08;;
71969;SDS011;59838;52.152;5.436;2023-08-31T07:36:42;2.53;;;1.05;;
71969;SDS011;59838;52.152;5.436;2023-08-31T07:39:10;3.58;;;1.70;;
71969;SDS011;59838;52.152;5.436;2023-08-31T07:41:36;4.23;;;1.47;;
71969;SDS011;59838;52.152;5.436;2023-08-31T07:44:03;3.15;;;1.30;;
71969;SDS011;59838;52.152;5.436;2023-08-31T07:46:30;2.05;;;1.20;;
71969;SDS011;59838;52.152;5.436;2023-08-31T07:48:57;6.25;;;1.33;;
71969;SDS011;59838;52.152;5.436;2023-08-31T07:51:24;4.93;;;1.52;;
71969;SDS011;59838;52.152;5.436;2023-08-31T07:53:52;6.20;;;1.57;;
71969;SDS011;59838;52.152;5.436;2023-08-31T07:56:18;4.05;;;1.38;;
71969;SDS011;59838;52.152;5.436;2023-08-31T07:58:45;3.92;;;1.55;;
71969;SDS011;59838;52.152;5.436;2023-08-31T08:01:11;2.83;;;1.08;;
71969;SDS011;59838;52.152;5.436;2023-08-31T08:03:38;2.40;;;1.33;;
71969;SDS011;59838;52.152;5.436;2023-08-31T08:06:05;5.13;;;1.10;;
71969;SDS011;59838;52.152;5.436;2023-08-31T08:08:31;2.72;;;1.27;;
71969;SDS011;59838;52.152;5.436;2023-08-31T08:10:58;4.47;;;1.70;;
71969;SDS011;59838;52.152;5.436;2023-08-31T08:13:26;3.72;;;1.42;;
71969;SDS011;59838;52.152;5.436;2023-08-31T08:15:52;3.58;;;1.42;;
71969;SDS011;59838;52.152;5.436;2023-08-31T08:18:19;3.67;;;1.10;;
71969;SDS011;59838;52.152;5.436;2023-08-31T08:20:50;2.60;;;0.90;;
71969;SDS011;59838;52.152;5.436;2023-08-31T08:23:16;3.50;;;0.85;;
71969;SDS011;59838;52.152;5.436;2023-08-31T08:25:43;2.95;;;0.90;;
71969;SDS011;59838;52.152;5.436;2023-08-31T08:28:09;3.42;;;1.02;;
71969;SDS011;59838;52.152;5.436;2023-08-31T08:30:36;2.77;;;1.03;;
71969;SDS011;59838;52.152;5.436;2023-08-31T08:33:03;3.33;;;1.40;;
71969;SDS011;59838;52.152;5.436;2023-08-31T08:35:29;2.80;;;1.27;;
71969;SDS011;59838;52.152;5.436;2023-08-31T08:37:56;3.22;;;1.52;;
71969;SDS011;59838;52.152;5.436;2023-08-31T08:40:22;4.43;;;1.50;;
71969;SDS011;59838;52.152;5.436;2023-08-31T08:42:49;2.50;;;1.60;;
71969;SDS011;59838;52.152;5.436;2023-08-31T08:45:18;4.57;;;2.08;;
71969;SDS011;59838;52.152;5.436;2023-08-31T08:47:49;4.70;;;1.80;;
71969;SDS011;59838;52.152;5.436;2023-08-31T08:50:17;5.50;;;2.03;;
71969;SDS011;59838;52.152;5.436;2023-08-31T08:52:45;4.40;;;1.80;;
71969;SDS011;59838;52.152;5.436;2023-08-31T08:55:12;4.00;;;2.03;;
71969;SDS011;59838;52.152;5.436;2023-08-31T08:57:39;3.45;;;2.03;;
71969;SDS011;59838;52.152;5.436;2023-08-31T09:00:06;3.90;;;2.38;;
71969;SDS011;59838;52.152;5.436;2023-08-31T09:02:33;6.68;;;2.33;;
71969;SDS011;59838;52.152;5.436;2023-08-31T09:04:59;3.25;;;2.13;;
71969;SDS011;59838;52.152;5.436;2023-08-31T09:07:29;5.20;;;1.60;;
71969;SDS011;59838;52.152;5.436;2023-08-31T09:09:56;3.42;;;1.65;;
71969;SDS011;59838;52.152;5.436;2023-08-31T09:12:23;4.85;;;1.90;;
71969;SDS011;59838;52.152;5.436;2023-08-31T09:14:57;4.32;;;1.65;;
71969;SDS011;59838;52.152;5.436;2023-08-31T09:17:25;6.50;;;2.35;;
71969;SDS011;59838;52.152;5.436;2023-08-31T09:20:02;3.70;;;1.67;;
71969;SDS011;59838;52.152;5.436;2023-08-31T09:22:31;3.50;;;1.35;;
71969;SDS011;59838;52.152;5.436;2023-08-31T09:24:59;3.25;;;1.27;;
71969;SDS011;59838;52.152;5.436;2023-08-31T09:27:25;3.22;;;1.67;;
71969;SDS011;59838;52.152;5.436;2023-08-31T09:29:55;2.83;;;0.82;;
71969;SDS011;59838;52.152;5.436;2023-08-31T09:32:22;6.03;;;0.90;;
71969;SDS011;59838;52.152;5.436;2023-08-31T09:34:48;3.28;;;0.57;;
71969;SDS011;59838;52.152;5.436;2023-08-31T09:37:24;3.22;;;0.77;;
71969;SDS011;59838;52.152;5.436;2023-08-31T09:39:51;2.70;;;0.60;;
71969;SDS011;59838;52.152;5.436;2023-08-31T09:42:18;2.97;;;0.32;;
71969;SDS011;59838;52.152;5.436;2023-08-31T09:44:45;1.70;;;0.37;;
71969;SDS011;59838;52.152;5.436;2023-08-31T09:47:16;6.07;;;0.50;;
71969;SDS011;59838;52.152;5.436;2023-08-31T09:49:44;3.60;;;0.40;;
71969;SDS011;59838;52.152;5.436;2023-08-31T09:52:12;4.88;;;0.70;;
71969;SDS011;59838;52.152;5.436;2023-08-31T09:54:39;3.25;;;0.40;;
71969;SDS011;59838;52.152;5.436;2023-08-31T09:57:08;6.00;;;0.80;;
71969;SDS011;59838;52.152;5.436;2023-08-31T09:59:37;2.30;;;0.40;;
71969;SDS011;59838;52.152;5.436;2023-08-31T10:02:05;4.28;;;0.30;;
71969;SDS011;59838;52.152;5.436;2023-08-31T10:04:34;4.70;;;0.50;;
71969;SDS011;59838;52.152;5.436;2023-08-31T10:07:01;3.15;;;0.40;;
71969;SDS011;59838;52.152;5.436;2023-08-31T10:09:29;2.43;;;0.50;;
71969;SDS011;59838;52.152;5.436;2023-08-31T10:11:56;6.18;;;0.50;;
71969;SDS011;59838;52.152;5.436;2023-08-31T10:14:23;4.40;;;0.57;;
71969;SDS011;59838;52.152;5.436;2023-08-31T10:16:49;4.18;;;0.40;;
71969;SDS011;59838;52.152;5.436;2023-08-31T10:19:19;2.70;;;0.50;;
71969;SDS011;59838;52.152;5.436;2023-08-31T10:21:45;4.77;;;0.63;;
71969;SDS011;59838;52.152;5.436;2023-08-31T10:24:12;4.05;;;1.08;;
71969;SDS011;59838;52.152;5.436;2023-08-31T10:26:39;2.90;;;0.30;;
71969;SDS011;59838;52.152;5.436;2023-08-31T10:29:05;2.85;;;0.40;;
71969;SDS011;59838;52.152;5.436;2023-08-31T10:31:33;1.55;;;0.30;;
71969;SDS011;59838;52.152;5.436;2023-08-31T10:34:01;1.33;;;0.20;;
71969;SDS011;59838;52.152;5.436;2023-08-31T10:36:38;2.95;;;0.30;;
71969;SDS011;59838;52.152;5.436;2023-08-31T10:39:10;2.75;;;0.50;;
71969;SDS011;59838;52.152;5.436;2023-08-31T10:41:38;2.83;;;0.50;;
71969;SDS011;59838;52.152;5.436;2023-08-31T10:44:19;2.13;;;0.30;;
71969;SDS011;59838;52.152;5.436;2023-08-31T10:46:46;1.73;;;0.37;;
71969;SDS011;59838;52.152;5.436;2023-08-31T10:49:14;2.15;;;0.30;;
71969;SDS011;59838;52.152;5.436;2023-08-31T10:51:42;2.25;;;0.20;;
71969;SDS011;59838;52.152;5.436;2023-08-31T10:54:32;2.35;;;0.38;;
71969;SDS011;59838;52.152;5.436;2023-08-31T10:57:02;3.88;;;0.30;;
71969;SDS011;59838;52.152;5.436;2023-08-31T10:59:50;3.17;;;0.20;;
71969;SDS011;59838;52.152;5.436;2023-08-31T11:05:10;1.08;;;0.20;;
71969;SDS011;59838;52.152;5.436;2023-08-31T11:07:41;2.05;;;0.20;;
71969;SDS011;59838;52.152;5.436;2023-08-31T11:12:37;0.67;;;0.10;;
71969;SDS011;59838;52.152;5.436;2023-08-31T11:15:05;3.50;;;0.30;;
71969;SDS011;59838;52.152;5.436;2023-08-31T11:17:32;2.45;;;0.45;;
71969;SDS011;59838;52.152;5.436;2023-08-31T11:19:59;1.13;;;0.30;;
71969;SDS011;59838;52.152;5.436;2023-08-31T11:22:27;1.15;;;0.30;;
71969;SDS011;59838;52.152;5.436;2023-08-31T11:24:53;2.27;;;0.30;;
71969;SDS011;59838;52.152;5.436;2023-08-31T11:27:20;2.10;;;0.55;;
71969;SDS011;59838;52.152;5.436;2023-08-31T11:29:47;3.63;;;0.40;;
71969;SDS011;59838;52.152;5.436;2023-08-31T11:32:14;0.80;;;0.20;;
71969;SDS011;59838;52.152;5.436;2023-08-31T11:34:41;0.88;;;0.30;;
71969;SDS011;59838;52.152;5.436;2023-08-31T11:37:11;1.10;;;0.60;;
71969;SDS011;59838;52.152;5.436;2023-08-31T11:39:42;1.88;;;0.20;;
71969;SDS011;59838;52.152;5.436;2023-08-31T11:42:15;3.08;;;0.40;;
71969;SDS011;59838;52.152;5.436;2023-08-31T11:44:42;1.13;;;0.20;;
71969;SDS011;59838;52.152;5.436;2023-08-31T11:47:09;1.33;;;0.20;;
71969;SDS011;59838;52.152;5.436;2023-08-31T11:49:35;0.70;;;0.20;;
71969;SDS011;59838;52.152;5.436;2023-08-31T11:52:02;2.08;;;0.40;;
71969;SDS011;59838;52.152;5.436;2023-08-31T11:54:29;2.17;;;0.20;;
71969;SDS011;59838;52.152;5.436;2023-08-31T11:56:56;2.05;;;0.40;;
71969;SDS011;59838;52.152;5.436;2023-08-31T11:59:23;2.08;;;0.20;;
71969;SDS011;59838;52.152;5.436;2023-08-31T12:01:50;0.90;;;0.20;;
71969;SDS011;59838;52.152;5.436;2023-08-31T12:04:19;1.83;;;0.30;;
71969;SDS011;59838;52.152;5.436;2023-08-31T12:06:51;1.95;;;0.30;;
71969;SDS011;59838;52.152;5.436;2023-08-31T12:09:22;6.65;;;0.40;;
71969;SDS011;59838;52.152;5.436;2023-08-31T12:11:49;0.98;;;0.20;;
71969;SDS011;59838;52.152;5.436;2023-08-31T12:14:27;2.67;;;0.20;;
71969;SDS011;59838;52.152;5.436;2023-08-31T12:17:01;0.75;;;0.20;;
71969;SDS011;59838;52.152;5.436;2023-08-31T12:19:30;2.22;;;0.30;;
71969;SDS011;59838;52.152;5.436;2023-08-31T12:21:57;1.15;;;0.20;;
71969;SDS011;59838;52.152;5.436;2023-08-31T12:24:24;3.83;;;0.25;;
71969;SDS011;59838;52.152;5.436;2023-08-31T12:26:51;1.33;;;0.30;;
71969;SDS011;59838;52.152;5.436;2023-08-31T12:29:21;1.05;;;0.30;;
71969;SDS011;59838;52.152;5.436;2023-08-31T12:31:48;1.35;;;0.30;;
71969;SDS011;59838;52.152;5.436;2023-08-31T12:34:16;0.68;;;0.30;;
71969;SDS011;59838;52.152;5.436;2023-08-31T12:36:43;6.03;;;0.57;;
71969;SDS011;59838;52.152;5.436;2023-08-31T12:39:10;0.90;;;0.10;;
71969;SDS011;59838;52.152;5.436;2023-08-31T12:41:36;2.22;;;0.70;;
71969;SDS011;59838;52.152;5.436;2023-08-31T12:44:03;4.65;;;0.30;;
71969;SDS011;59838;52.152;5.436;2023-08-31T12:46:31;2.90;;;0.30;;
71969;SDS011;59838;52.152;5.436;2023-08-31T12:48:59;2.13;;;0.45;;
71969;SDS011;59838;52.152;5.436;2023-08-31T12:51:30;5.10;;;0.30;;
71969;SDS011;59838;52.152;5.436;2023-08-31T12:53:57;1.20;;;0.20;;
71969;SDS011;59838;52.152;5.436;2023-08-31T12:56:23;2.97;;;0.20;;
71969;SDS011;59838;52.152;5.436;2023-08-31T12:58:50;3.47;;;0.30;;
71969;SDS011;59838;52.152;5.436;2023-08-31T13:01:19;1.80;;;0.45;;
71969;SDS011;59838;52.152;5.436;2023-08-31T13:03:46;3.00;;;0.20;;
71969;SDS011;59838;52.152;5.436;2023-08-31T13:06:13;0.80;;;0.20;;
71969;SDS011;59838;52.152;5.436;2023-08-31T13:08:40;0.65;;;0.20;;
71969;SDS011;59838;52.152;5.436;2023-08-31T13:11:07;2.13;;;0.75;;
71969;SDS011;59838;52.152;5.436;2023-08-31T13:13:33;1.63;;;0.30;;
71969;SDS011;59838;52.152;5.436;2023-08-31T13:16:00;1.53;;;0.40;;
71969;SDS011;59838;52.152;5.436;2023-08-31T13:18:26;1.83;;;0.30;;
71969;SDS011;59838;52.152;5.436;2023-08-31T13:20:53;1.63;;;0.38;;
71969;SDS011;59838;52.152;5.436;2023-08-31T13:23:23;1.80;;;0.40;;
71969;SDS011;59838;52.152;5.436;2023-08-31T13:25:50;1.88;;;0.38;;
71969;SDS011;59838;52.152;5.436;2023-08-31T13:28:17;2.83;;;0.30;;
71969;SDS011;59838;52.152;5.436;2023-08-31T13:30:44;10.23;;;0.60;;
71969;SDS011;59838;52.152;5.436;2023-08-31T13:33:11;1.73;;;0.60;;
71969;SDS011;59838;52.152;5.436;2023-08-31T13:35:37;2.10;;;0.30;;
71969;SDS011;59838;52.152;5.436;2023-08-31T13:38:04;1.30;;;0.20;;
71969;SDS011;59838;52.152;5.436;2023-08-31T13:40:30;2.03;;;0.60;;
71969;SDS011;59838;52.152;5.436;2023-08-31T13:42:59;1.48;;;0.47;;
71969;SDS011;59838;52.152;5.436;2023-08-31T13:45:30;4.75;;;0.30;;
71969;SDS011;59838;52.152;5.436;2023-08-31T13:47:57;1.65;;;0.30;;
71969;SDS011;59838;52.152;5.436;2023-08-31T13:50:27;2.10;;;0.40;;
71969;SDS011;59838;52.152;5.436;2023-08-31T13:52:54;1.50;;;0.20;;
71969;SDS011;59838;52.152;5.436;2023-08-31T13:55:20;0.93;;;0.30;;
71969;SDS011;59838;52.152;5.436;2023-08-31T13:57:48;1.77;;;0.20;;
71969;SDS011;59838;52.152;5.436;2023-08-31T14:00:15;0.68;;;0.40;;
71969;SDS011;59838;52.152;5.436;2023-08-31T14:02:43;1.35;;;0.30;;
71969;SDS011;59838;52.152;5.436;2023-08-31T14:05:12;2.30;;;0.30;;
71969;SDS011;59838;52.152;5.436;2023-08-31T14:07:40;1.65;;;0.45;;
71969;SDS011;59838;52.152;5.436;2023-08-31T14:10:07;1.77;;;0.20;;
71969;SDS011;59838;52.152;5.436;2023-08-31T14:12:34;3.00;;;0.30;;
71969;SDS011;59838;52.152;5.436;2023-08-31T14:15:00;5.60;;;0.30;;
71969;SDS011;59838;52.152;5.436;2023-08-31T14:17:30;1.70;;;0.30;;
71969;SDS011;59838;52.152;5.436;2023-08-31T14:20:01;2.28;;;0.30;;
71969;SDS011;59838;52.152;5.436;2023-08-31T14:22:31;3.08;;;0.50;;
71969;SDS011;59838;52.152;5.436;2023-08-31T14:24:59;2.25;;;0.22;;
71969;SDS011;59838;52.152;5.436;2023-08-31T14:27:27;1.10;;;0.30;;
71969;SDS011;59838;52.152;5.436;2023-08-31T14:29:54;4.53;;;0.40;;
71969;SDS011;59838;52.152;5.436;2023-08-31T14:32:20;5.32;;;0.28;;
71969;SDS011;59838;52.152;5.436;2023-08-31T14:34:48;1.67;;;0.30;;
71969;SDS011;59838;52.152;5.436;2023-08-31T14:37:14;3.50;;;0.32;;
71969;SDS011;59838;52.152;5.436;2023-08-31T14:39:41;3.38;;;0.40;;
71969;SDS011;59838;52.152;5.436;2023-08-31T14:42:08;2.63;;;0.40;;
71969;SDS011;59838;52.152;5.436;2023-08-31T14:44:34;3.80;;;0.30;;
71969;SDS011;59838;52.152;5.436;2023-08-31T14:47:00;2.45;;;0.38;;
71969;SDS011;59838;52.152;5.436;2023-08-31T14:49:27;2.45;;;0.20;;
71969;SDS011;59838;52.152;5.436;2023-08-31T14:51:54;3.20;;;0.40;;
71969;SDS011;59838;52.152;5.436;2023-08-31T14:54:21;2.47;;;0.67;;
71969;SDS011;59838;52.152;5.436;2023-08-31T14:56:48;1.55;;;0.20;;
71969;SDS011;59838;52.152;5.436;2023-08-31T14:59:15;2.53;;;0.40;;
71969;SDS011;59838;52.152;5.436;2023-08-31T15:01:41;3.17;;;0.75;;
71969;SDS011;59838;52.152;5.436;2023-08-31T15:04:08;1.35;;;0.40;;